Jj Sky — VRJA6 — position and weather

sailwx.info

Track history (hours):
 
Tides and Currents Weather Stations Pressure Air Temp Water Temp Dewpoint Dewpoint Depression Visibility Wind Speed Wind Dir Waves Ship Positions

Jj Sky

Last reported at 2014-Dec-22 01:19 UTC. Time now 2014-Dec-22 09:11 UTC.
Position N 34°39' E 135°24'.

Length 148 m; draft 7.9 m.

Type: Ship. MMSI: 477397500.

Date/timePositionNaut miles runAvg speedWind from/ knotsBaromVisibWave heightAir tempDewpointWater temp
2014-Dec-22 01:19N 34°39' E 135°24'0 0.0
2014-Dec-21 22:10N 34°39' E 135°24'3 4.4
2014-Dec-21 21:32N 34°37' E 135°22'  
2014-Dec-19 16:22N 31°13' E 122°06'1011.7
2014-Dec-19 15:33N 31°15' E 121°56'1111.3
2014-Dec-19 14:32N 31°19' E 121°43'2 2.2
2014-Dec-19 13:32N 31°20' E 121°40'0 0.0
2014-Dec-19 12:14N 31°20' E 121°40'0 0.0
2014-Dec-19 11:31N 31°20' E 121°40'0 0.0
2014-Dec-19 10:28N 31°20' E 121°40'0 0.0
2014-Dec-19 09:25N 31°20' E 121°40'0 0.0
2014-Dec-19 08:30N 31°20' E 121°40'0 0.0
2014-Dec-19 07:30N 31°20' E 121°40'0 0.0
2014-Dec-19 06:29N 31°20' E 121°40'0 0.0
2014-Dec-19 05:23N 31°20' E 121°40'0 0.0
2014-Dec-19 03:31N 31°20' E 121°40'0 0.3
2014-Dec-19 02:33N 31°20' E 121°40'6 5.9
2014-Dec-19 01:33N 31°18' E 121°47'1212.0
2014-Dec-19 00:33N 31°15' E 122°00'  
2014-Dec-16 06:30N 34°37' E 135°06'8 8.0
2014-Dec-16 05:32N 34°40' E 135°14'0 0.0
2014-Dec-16 03:31N 34°40' E 135°14'0 0.0
2014-Dec-16 01:06N 34°40' E 135°14'0 0.0
2014-Dec-15 23:11N 34°40' E 135°14'0 0.0
2014-Dec-15 22:33N 34°40' E 135°14'6 6.1
2014-Dec-15 21:33N 34°39' E 135°22'2 1.0
2014-Dec-15 19:26N 34°39' E 135°24'0 0.0
2014-Dec-15 18:31N 34°39' E 135°24'0 0.0
2014-Dec-15 16:18N 34°39' E 135°24'0 0.0
2014-Dec-15 15:06N 34°39' E 135°24'2 0.1
2014-Dec-14 21:32N 34°38' E 135°23'68313.1
2014-Dec-12 17:33N 31°06' E 122°30'1414.1
2014-Dec-12 16:33N 31°09' E 122°14'1312.6
2014-Dec-12 15:34N 31°15' E 122°01'1514.6
2014-Dec-12 14:33N 31°19' E 121°44'3 3.2
2014-Dec-12 13:28N 31°20' E 121°40'0 0.0
2014-Dec-12 12:31N 31°20' E 121°40'0 0.0
2014-Dec-12 11:33N 31°20' E 121°40'0 0.0
2014-Dec-12 10:33N 31°20' E 121°40'0 0.0
2014-Dec-12 09:33N 31°20' E 121°40'0 0.0
2014-Dec-12 08:32N 31°20' E 121°40'0 0.0
2014-Dec-12 07:32N 31°20' E 121°40'0 0.0
2014-Dec-12 06:31N 31°20' E 121°40'0 0.0
2014-Dec-12 05:31N 31°20' E 121°40'0 0.0
2014-Dec-12 04:33N 31°20' E 121°40'0 0.0
2014-Dec-12 03:33N 31°20' E 121°40'0 0.0
2014-Dec-12 02:29N 31°20' E 121°40'0 0.0
2014-Dec-12 01:32N 31°20' E 121°40'  
Track history (hours):
 
Tides and Currents Weather Stations Pressure Air Temp Water Temp Dewpoint Dewpoint Depression Visibility Wind Speed Wind Dir Waves Ship Positions

Jj Sky

Last reported at 2014-Dec-22 01:19 UTC. Time now 2014-Dec-22 09:11 UTC.
Position N 34°39' E 135°24'.

Length 148 m; draft 7.9 m.

Type: Ship. MMSI: 477397500.

Date/timePositionNaut miles runAvg speedWind from/ knotsBaromVisibWave heightAir tempDewpointWater temp
2014-Dec-22 01:19N 34°39' E 135°24'0 0.0
2014-Dec-21 22:10N 34°39' E 135°24'3 4.4
2014-Dec-21 21:32N 34°37' E 135°22'  
2014-Dec-19 16:22N 31°13' E 122°06'1011.7
2014-Dec-19 15:33N 31°15' E 121°56'1111.3
2014-Dec-19 14:32N 31°19' E 121°43'2 2.2
2014-Dec-19 13:32N 31°20' E 121°40'0 0.0
2014-Dec-19 12:14N 31°20' E 121°40'0 0.0
2014-Dec-19 11:31N 31°20' E 121°40'0 0.0
2014-Dec-19 10:28N 31°20' E 121°40'0 0.0
2014-Dec-19 09:25N 31°20' E 121°40'0 0.0
2014-Dec-19 08:30N 31°20' E 121°40'0 0.0
2014-Dec-19 07:30N 31°20' E 121°40'0 0.0
2014-Dec-19 06:29N 31°20' E 121°40'0 0.0
2014-Dec-19 05:23N 31°20' E 121°40'0 0.0
2014-Dec-19 03:31N 31°20' E 121°40'0 0.3
2014-Dec-19 02:33N 31°20' E 121°40'6 5.9
2014-Dec-19 01:33N 31°18' E 121°47'1212.0
2014-Dec-19 00:33N 31°15' E 122°00'  
2014-Dec-16 06:30N 34°37' E 135°06'8 8.0
2014-Dec-16 05:32N 34°40' E 135°14'0 0.0
2014-Dec-16 03:31N 34°40' E 135°14'0 0.0
2014-Dec-16 01:06N 34°40' E 135°14'0 0.0
2014-Dec-15 23:11N 34°40' E 135°14'0 0.0
2014-Dec-15 22:33N 34°40' E 135°14'6 6.1
2014-Dec-15 21:33N 34°39' E 135°22'2 1.0
2014-Dec-15 19:26N 34°39' E 135°24'0 0.0
2014-Dec-15 18:31N 34°39' E 135°24'0 0.0
2014-Dec-15 16:18N 34°39' E 135°24'0 0.0
2014-Dec-15 15:06N 34°39' E 135°24'2 0.1
2014-Dec-14 21:32N 34°38' E 135°23'68313.1
2014-Dec-12 17:33N 31°06' E 122°30'1414.1
2014-Dec-12 16:33N 31°09' E 122°14'1312.6
2014-Dec-12 15:34N 31°15' E 122°01'1514.6
2014-Dec-12 14:33N 31°19' E 121°44'3 3.2
2014-Dec-12 13:28N 31°20' E 121°40'0 0.0
2014-Dec-12 12:31N 31°20' E 121°40'0 0.0
2014-Dec-12 11:33N 31°20' E 121°40'0 0.0
2014-Dec-12 10:33N 31°20' E 121°40'0 0.0
2014-Dec-12 09:33N 31°20' E 121°40'0 0.0
2014-Dec-12 08:32N 31°20' E 121°40'0 0.0
2014-Dec-12 07:32N 31°20' E 121°40'0 0.0
2014-Dec-12 06:31N 31°20' E 121°40'0 0.0
2014-Dec-12 05:31N 31°20' E 121°40'0 0.0
2014-Dec-12 04:33N 31°20' E 121°40'0 0.0
2014-Dec-12 03:33N 31°20' E 121°40'0 0.0
2014-Dec-12 02:29N 31°20' E 121°40'0 0.0
2014-Dec-12 01:32N 31°20' E 121°40'  

Dump ship's entire track history